METAR UND TAF INFORMATION
METAR FOR EDDT
ADDS - METARS form results

(1112 UTC 19 December 2018)
Data provider http://aviationweather.gov/metar/data/
 
METAR text: EDDT 191050Z 15011KT CAVOK 02/M01 Q1017 NOSIG
Conditions at: EDDT (BERLIN/TEGEL (FA, DE) observed 1050 UTC 19 December 2018
Temperature: 2.0°C (36°F)
Dewpoint: -1.0°C (30°F) [RH = 80%]
Pressure (altimeter): 30.03 inches Hg (1017.0 mb)
Winds: from the SSE (150 degrees) at 13 MPH (11 knots; 5.7 m/s)
Visibility: 6 or more miles (10+ km)
Ceiling: ceiling and visibility are OK
Clouds: unknown
Weather: no significant weather observed at this time

METAR text: EDDT 191020Z 16010KT CAVOK 02/M01 Q1017 NOSIG
Conditions at: EDDT (BERLIN/TEGEL (FA, DE) observed 1020 UTC 19 December 2018
Temperature: 2.0°C (36°F)
Dewpoint: -1.0°C (30°F) [RH = 80%]
Pressure (altimeter): 30.03 inches Hg (1017.0 mb)
Winds: from the SSE (160 degrees) at 12 MPH (10 knots; 5.1 m/s)
Visibility: 6 or more miles (10+ km)
Ceiling: ceiling and visibility are OK
Clouds: unknown
Weather: no significant weather observed at this time

Forecast for: EDDT (BERLIN/TEGEL (FA, DE)
Text: TAF EDDT 190500Z 1906/2006 13008KT CAVOK
Forecast period: 0600 UTC 19 December 2018 to 0600 UTC 20 December 2018
Forecast type: FROM: standard forecast or significant change
Winds: from the SE (130 degrees) at 9 MPH (8 knots; 4.1 m/s)
Visibility: 6 or more miles 10+ km)
Ceiling: unknown
Clouds: missing
Weather: NSW  (no significant weather)

 FLUGHAFENKARTE

 RUNWAY INFORMATION
Runway 08L Runway length 9918 ft Runway width 151 ft
Runway elevation 110 ft Runway displaced threshold 0 ft Runway heading 81
Runway 26R Runway length 9918 ft Runway width 151 ft
Runway elevation 117 ft Runway displaced threshold 0 ft Runway heading 261
Runway 08R Runway length 7966 ft Runway width 151 ft
Runway elevation 109 ft Runway displaced threshold 341 ft Runway heading 81
Runway 26L Runway length 7966 ft Runway width 151 ft
Runway elevation 122 ft Runway displaced threshold 722 ft Runway heading 261

 AIRPORT FREQUENCIES
Type AFIS Name BERLIN INF Frequency 132.65 MHZ
Type APP Name BERLIN ARR Frequency 119.625 MHZ
Type ATIS Name ATIS Frequency 125.9 MHZ
Type DEP Name BERLIN DEP Frequency 120.625 MHZ
Type DIR Name BERLIN DIR Frequency 136.1 MHZ
Type GND Name GND Frequency 121.925 MHZ
Type RMP Name BERLIN MIL Frequency 136 MHZ
Type TWR Name TWR Frequency 124.525 MHZ

 AIRPORT NEAR NAVIGATION AIDS
Type NDB Name Tegel East Frequency 321 KHZ
Type NDB Name Tegel West Frequency 392 KHZ
Type VOR-DME Name Tegel Frequency 112300 KHZ



WIKA Airline 2017 Version 3.3 powered by VAM